createdAt,value
2023-05-19T00:01:37.726Z,101090.44
2023-05-19T00:04:40.815Z,101112.41
2023-05-19T00:07:44.220Z,101107.41
2023-05-19T00:10:47.225Z,101100.09
2023-05-19T00:13:51.153Z,101107.66
2023-05-19T00:16:56.021Z,101097.91
2023-05-19T00:19:58.509Z,101082.75
2023-05-19T00:23:01.297Z,101102.66
2023-05-19T00:26:03.733Z,101107.72
2023-05-19T00:29:06.444Z,101109.97
2023-05-19T00:32:09.042Z,101101.00
2023-05-19T00:35:12.452Z,101086.38
2023-05-19T00:38:15.074Z,101097.16
2023-05-19T00:41:18.212Z,101091.56
2023-05-19T00:44:20.568Z,101079.12
2023-05-19T00:47:23.215Z,101070.50
2023-05-19T00:50:27.422Z,101076.38
2023-05-19T00:53:31.852Z,101092.53
2023-05-19T00:56:34.337Z,101070.97
2023-05-19T00:59:37.065Z,101095.72
2023-05-19T01:02:40.102Z,101093.19
2023-05-19T01:05:47.564Z,101095.16
2023-05-19T01:08:51.646Z,101092.09
2023-05-19T01:11:54.329Z,101086.78
2023-05-19T01:14:58.756Z,101072.38
2023-05-19T01:18:20.794Z,101089.97
2023-05-19T01:22:01.170Z,101082.41
2023-05-19T01:25:34.200Z,101082.34
2023-05-19T01:28:53.196Z,101083.16
2023-05-19T01:32:00.124Z,101094.03
2023-05-19T01:35:05.630Z,101091.84
2023-05-19T01:38:11.352Z,101092.97
2023-05-19T01:41:16.949Z,101090.78
2023-05-19T01:44:22.304Z,101083.56
2023-05-19T01:47:24.967Z,101081.28
2023-05-19T01:50:31.958Z,101083.47
2023-05-19T01:53:34.632Z,101080.69
2023-05-19T01:56:43.738Z,101072.69
2023-05-19T01:59:52.095Z,101083.75
2023-05-19T02:03:33.099Z,101082.94
2023-05-19T02:06:35.709Z,101085.72
2023-05-19T02:09:41.946Z,101086.62
2023-05-19T02:12:46.140Z,101066.38
2023-05-19T02:15:49.902Z,101081.31
2023-05-19T02:18:54.045Z,101080.22
2023-05-19T02:21:56.847Z,101086.34
2023-05-19T02:24:59.252Z,101071.94
2023-05-19T02:28:01.933Z,101088.59
2023-05-19T02:31:08.802Z,101080.22
2023-05-19T02:34:11.513Z,101078.53
2023-05-19T02:37:15.559Z,101080.50
2023-05-19T02:40:18.606Z,101061.91
2023-05-19T02:43:21.010Z,101083.03
2023-05-19T02:46:24.153Z,101065.59
2023-05-19T02:49:26.696Z,101089.12
2023-05-19T02:52:29.623Z,101078.53
2023-05-19T02:55:31.980Z,101079.34
2023-05-19T02:58:34.594Z,101066.88
2023-05-19T03:01:37.797Z,101062.44
2023-05-19T03:04:43.055Z,101072.94
2023-05-19T03:07:45.715Z,101078.53
2023-05-19T03:10:48.693Z,101091.09
2023-05-19T03:13:51.158Z,101084.69
2023-05-19T03:16:54.135Z,101089.44
2023-05-19T03:19:56.572Z,101068.31
2023-05-19T03:23:00.396Z,101072.84
2023-05-19T03:26:04.273Z,101075.94
2023-05-19T03:29:07.960Z,101095.63
2023-05-19T03:32:11.212Z,101099.75
2023-05-19T03:35:13.892Z,101086.12
2023-05-19T03:38:16.434Z,101100.81
2023-05-19T03:41:21.314Z,101090.78
2023-05-19T03:44:23.724Z,101086.28
2023-05-19T03:47:27.553Z,101095.75
2023-05-19T03:50:31.747Z,101088.81
2023-05-19T03:53:35.725Z,101078.78
2023-05-19T03:56:40.022Z,101085.53
2023-05-19T03:59:44.029Z,101090.56
2023-05-19T04:02:46.593Z,101099.19
2023-05-19T04:05:49.423Z,101099.41
2023-05-19T04:08:51.853Z,101078.81
2023-05-19T04:11:54.538Z,101097.38
2023-05-19T04:14:56.935Z,101100.50
2023-05-19T04:18:00.380Z,101098.53
2023-05-19T04:21:03.071Z,101078.97
2023-05-19T04:24:06.667Z,101090.59
2023-05-19T04:27:12.283Z,101088.03
2023-05-19T04:30:22.147Z,101110.16
2023-05-19T04:33:24.748Z,101090.66
2023-05-19T04:36:27.607Z,101086.75
2023-05-19T04:39:31.534Z,101111.19
2023-05-19T04:42:34.947Z,101115.50
2023-05-19T04:45:37.777Z,101124.28
2023-05-19T04:48:41.283Z,101120.34
2023-05-19T04:51:46.129Z,101124.09
2023-05-19T04:54:48.815Z,101126.50
2023-05-19T04:57:51.174Z,101113.38
2023-05-19T05:01:00.930Z,101128.59
2023-05-19T05:04:03.954Z,101110.78
2023-05-19T05:07:06.921Z,101124.19
2023-05-19T05:10:10.284Z,101128.44
2023-05-19T05:13:13.271Z,101128.66
2023-05-19T05:16:16.808Z,101134.56
2023-05-19T05:19:19.911Z,101140.97
2023-05-19T05:22:23.381Z,101125.72
2023-05-19T05:25:26.407Z,101138.63
2023-05-19T05:28:28.850Z,101147.25
2023-05-19T05:31:31.745Z,101152.16
2023-05-19T05:34:34.604Z,101148.69
2023-05-19T05:37:37.524Z,101146.13
2023-05-19T05:40:39.929Z,101139.91
2023-05-19T05:43:43.506Z,101141.44
2023-05-19T05:46:46.284Z,101140.00
2023-05-19T05:49:51.598Z,101122.16
2023-05-19T05:52:57.610Z,101139.47
2023-05-19T05:56:00.985Z,101140.75
2023-05-19T05:59:04.243Z,101152.59
2023-05-19T06:02:07.322Z,101139.06
2023-05-19T06:05:12.448Z,101137.19
2023-05-19T06:08:15.242Z,101146.94
2023-05-19T06:11:19.658Z,101146.91
2023-05-19T06:14:23.038Z,101146.69
2023-05-19T06:17:26.433Z,101140.75
2023-05-19T06:20:29.202Z,101138.59
2023-05-19T06:23:32.427Z,101155.97
2023-05-19T06:26:35.096Z,101159.44
2023-05-19T06:29:37.992Z,101159.53
2023-05-19T06:32:41.722Z,101165.53
2023-05-19T06:35:44.562Z,101167.38
2023-05-19T06:38:46.949Z,101155.00
2023-05-19T06:41:49.868Z,101160.97
2023-05-19T06:44:58.949Z,101178.78
2023-05-19T06:48:03.699Z,101181.66
2023-05-19T06:51:06.475Z,101184.53
2023-05-19T06:54:11.143Z,101172.13
2023-05-19T06:57:13.591Z,101181.28
2023-05-19T07:00:18.794Z,101176.59
2023-05-19T07:03:23.461Z,101174.41
2023-05-19T07:06:26.761Z,101190.25
2023-05-19T07:09:29.308Z,101194.62
2023-05-19T07:12:32.506Z,101185.03
2023-05-19T07:15:35.268Z,101185.87
2023-05-19T07:18:38.994Z,101170.28
2023-05-19T07:21:42.492Z,101186.72
2023-05-19T07:24:45.367Z,101170.34
2023-05-19T07:27:48.326Z,101181.34
2023-05-19T07:30:51.334Z,101177.84
2023-05-19T07:33:54.846Z,101170.03
2023-05-19T07:36:57.559Z,101143.38
2023-05-19T07:40:00.076Z,101165.41
2023-05-19T07:43:02.816Z,101153.22
2023-05-19T07:46:06.178Z,101171.72
2023-05-19T07:49:09.011Z,101164.91
2023-05-19T07:52:11.466Z,101167.25
2023-05-19T07:55:14.962Z,101141.41
2023-05-19T07:58:17.521Z,101151.84
2023-05-19T08:01:20.156Z,101145.94
2023-05-19T08:04:23.020Z,101157.50
2023-05-19T08:07:25.607Z,101161.72
2023-05-19T08:10:28.453Z,101154.88
2023-05-19T08:13:31.390Z,101155.22
2023-05-19T08:16:34.134Z,101153.88
2023-05-19T08:19:36.592Z,101146.38
2023-05-19T08:22:39.296Z,101150.47
2023-05-19T08:25:41.941Z,101141.47
2023-05-19T08:28:44.684Z,101123.94
2023-05-19T08:31:47.270Z,101150.00
2023-05-19T08:34:50.034Z,101146.13
2023-05-19T08:37:52.457Z,101144.88
2023-05-19T08:40:55.314Z,101144.19
2023-05-19T08:43:57.764Z,101132.16
2023-05-19T08:47:04.985Z,101135.78
2023-05-19T08:50:10.821Z,101126.91
2023-05-19T08:53:33.366Z,101142.13
2023-05-19T08:56:37.699Z,101131.87
2023-05-19T08:59:41.538Z,101133.81
2023-05-19T09:02:55.028Z,101135.53
2023-05-19T09:06:17.237Z,101149.78
2023-05-19T09:09:20.102Z,101123.72
2023-05-19T09:12:24.024Z,101137.16
2023-05-19T09:15:30.777Z,101135.84
2023-05-19T09:18:34.026Z,101141.03
2023-05-19T09:21:37.310Z,101138.66
2023-05-19T09:24:40.811Z,101134.19
2023-05-19T09:27:43.230Z,101136.25
2023-05-19T09:30:45.997Z,101137.38
2023-05-19T09:33:53.239Z,101136.16
2023-05-19T09:36:57.833Z,101138.09
2023-05-19T09:40:00.635Z,101127.75
2023-05-19T09:43:05.561Z,101135.03
2023-05-19T09:46:11.869Z,101126.62
2023-05-19T09:49:20.549Z,101131.63
2023-05-19T09:52:23.259Z,101130.09
2023-05-19T09:55:28.808Z,101131.41
2023-05-19T09:58:35.447Z,101133.34
2023-05-19T10:01:41.273Z,101121.91
2023-05-19T10:04:45.105Z,101110.53
2023-05-19T10:07:54.649Z,101117.75
2023-05-19T10:10:57.939Z,101108.69
2023-05-19T10:14:00.789Z,101106.28
2023-05-19T10:17:04.120Z,101098.69
2023-05-19T10:20:15.731Z,101097.44
2023-05-19T10:23:18.722Z,101089.06
2023-05-19T10:26:22.520Z,101088.19
2023-05-19T10:29:32.420Z,101087.84
2023-05-19T10:32:37.428Z,101085.44
2023-05-19T10:36:02.585Z,101075.78
2023-05-19T10:39:07.874Z,101081.72
2023-05-19T10:42:27.904Z,101087.72
2023-05-19T10:45:36.691Z,101089.66
2023-05-19T10:48:44.963Z,101076.03
2023-05-19T10:51:47.413Z,101075.06
2023-05-19T10:54:51.461Z,101069.44
2023-05-19T10:57:56.883Z,101081.22
2023-05-19T11:01:02.512Z,101074.28
2023-05-19T11:04:07.163Z,101056.69
2023-05-19T11:07:10.545Z,101064.06
2023-05-19T11:10:13.458Z,101056.09
2023-05-19T11:13:22.677Z,101052.38
2023-05-19T11:16:29.986Z,101033.72
2023-05-19T11:19:35.343Z,101056.12
2023-05-19T11:22:38.890Z,101036.84
2023-05-19T11:25:53.952Z,101047.09
2023-05-19T11:28:57.148Z,101043.41
2023-05-19T11:32:00.725Z,101038.72
2023-05-19T11:35:03.380Z,101052.75
2023-05-19T11:38:07.239Z,101040.28
2023-05-19T11:41:09.651Z,101032.44
2023-05-19T11:44:12.327Z,101039.75
2023-05-19T11:47:16.056Z,101022.38
2023-05-19T11:50:20.330Z,101038.53
2023-05-19T11:53:23.303Z,101035.56
2023-05-19T11:56:26.186Z,101040.16
2023-05-19T11:59:34.159Z,101034.88
2023-05-19T12:02:38.529Z,101036.69
2023-05-19T12:05:47.156Z,101016.91
2023-05-19T12:08:56.251Z,101033.81
2023-05-19T12:11:59.079Z,101022.75
2023-05-19T12:15:03.666Z,101029.59
2023-05-19T12:18:06.862Z,101021.47
2023-05-19T12:21:09.383Z,101017.94
2023-05-19T12:24:12.175Z,101014.69
2023-05-19T12:27:24.492Z,101000.44
2023-05-19T12:30:29.763Z,101011.75
2023-05-19T12:33:34.278Z,100996.53
2023-05-19T12:36:38.631Z,101008.50
2023-05-19T12:39:42.470Z,101003.28
2023-05-19T12:42:45.629Z,100998.81
2023-05-19T12:45:48.714Z,100989.44
2023-05-19T12:48:51.806Z,100974.41
2023-05-19T12:51:54.449Z,100966.25
2023-05-19T12:55:01.626Z,100975.78
2023-05-19T12:58:06.967Z,100971.78
2023-05-19T13:01:17.572Z,100966.88
2023-05-19T13:04:20.215Z,100969.13
2023-05-19T13:07:22.926Z,100969.78
2023-05-19T13:10:29.550Z,100976.06
2023-05-19T13:13:32.409Z,100963.81
2023-05-19T13:16:34.871Z,100961.84
2023-05-19T13:19:37.843Z,100956.16
2023-05-19T13:22:40.628Z,100954.41
2023-05-19T13:25:43.786Z,100946.13
2023-05-19T13:28:46.161Z,100941.69
2023-05-19T13:31:48.861Z,100948.91
2023-05-19T13:34:51.225Z,100928.59
2023-05-19T13:37:54.114Z,100935.47
2023-05-19T13:40:56.595Z,100926.78
2023-05-19T13:43:59.817Z,100931.44
2023-05-19T13:47:02.382Z,100919.81
2023-05-19T13:50:05.740Z,100917.69
2023-05-19T13:53:08.270Z,100929.63
2023-05-19T13:56:11.093Z,100913.50
2023-05-19T13:59:13.621Z,100925.91
2023-05-19T14:02:16.311Z,100924.16
2023-05-19T14:05:18.962Z,100902.53
2023-05-19T14:08:22.114Z,100914.63
2023-05-19T14:11:24.835Z,100915.78
2023-05-19T14:14:27.308Z,100919.34
2023-05-19T14:17:30.013Z,100900.19
2023-05-19T14:20:32.500Z,100894.72
2023-05-19T14:23:35.547Z,100900.66
2023-05-19T14:26:38.087Z,100906.22
2023-05-19T14:29:41.860Z,100905.88
2023-05-19T14:32:44.367Z,100891.75
2023-05-19T14:35:47.215Z,100913.03
2023-05-19T14:38:49.730Z,100911.28
2023-05-19T14:41:53.041Z,100893.69
2023-05-19T14:44:56.003Z,100909.22
2023-05-19T14:47:58.888Z,100892.44
2023-05-19T14:51:01.415Z,100908.31
2023-05-19T14:54:04.137Z,100906.41
2023-05-19T14:57:08.202Z,100892.31
2023-05-19T15:00:11.558Z,100894.66
2023-05-19T15:03:14.125Z,100888.22
2023-05-19T15:06:16.806Z,100890.78
2023-05-19T15:09:19.266Z,100894.44
2023-05-19T15:12:22.156Z,100883.47
2023-05-19T15:15:24.590Z,100883.69
2023-05-19T15:18:27.312Z,100878.88
2023-05-19T15:21:29.730Z,100877.97
2023-05-19T15:24:32.464Z,100880.94
2023-05-19T15:27:38.001Z,100894.19
2023-05-19T15:30:41.148Z,100886.38
2023-05-19T15:33:43.536Z,100894.31
2023-05-19T15:36:46.845Z,100884.22
2023-05-19T15:39:49.460Z,100885.03
2023-05-19T15:42:52.138Z,100884.91
2023-05-19T15:45:55.274Z,100881.41
2023-05-19T15:48:58.104Z,100875.88
2023-05-19T15:52:00.618Z,100887.09
2023-05-19T15:55:03.429Z,100883.38
2023-05-19T15:58:05.964Z,100883.72
2023-05-19T16:01:08.980Z,100879.03
2023-05-19T16:04:11.837Z,100878.56
2023-05-19T16:07:14.357Z,100862.88
2023-05-19T16:10:17.107Z,100880.50
2023-05-19T16:13:19.457Z,100887.25
2023-05-19T16:16:22.181Z,100881.09
2023-05-19T16:19:24.785Z,100888.78
2023-05-19T16:22:27.652Z,100873.63
2023-05-19T16:25:30.181Z,100880.97
2023-05-19T16:28:32.976Z,100882.81
2023-05-19T16:31:35.494Z,100887.97
2023-05-19T16:34:40.567Z,100887.87
2023-05-19T16:37:43.102Z,100884.81
2023-05-19T16:40:45.841Z,100895.09
2023-05-19T16:43:48.316Z,100876.19
2023-05-19T16:46:51.055Z,100885.88
2023-05-19T16:49:53.495Z,100881.66
2023-05-19T16:52:56.265Z,100886.91
2023-05-19T16:56:02.046Z,100872.44
2023-05-19T16:59:04.814Z,100878.94
2023-05-19T17:02:08.250Z,100876.47
2023-05-19T17:05:11.008Z,100885.28
2023-05-19T17:08:13.488Z,100882.72
2023-05-19T17:11:16.184Z,100876.53
2023-05-19T17:14:18.561Z,100881.19
2023-05-19T17:17:21.501Z,100885.50
2023-05-19T17:20:23.891Z,100882.84
2023-05-19T17:23:26.608Z,100868.19
2023-05-19T17:26:29.038Z,100877.13
2023-05-19T17:29:32.356Z,100884.59
2023-05-19T17:32:38.636Z,100886.88
2023-05-19T17:35:42.234Z,100891.16
2023-05-19T17:38:44.669Z,100893.78
2023-05-19T17:41:47.430Z,100893.94
2023-05-19T17:44:49.874Z,100900.25
2023-05-19T17:47:52.633Z,100908.63
2023-05-19T17:50:55.303Z,100898.53
2023-05-19T17:53:58.766Z,100893.50
2023-05-19T17:57:06.569Z,100908.94
2023-05-19T18:00:10.613Z,100913.91
2023-05-19T18:03:13.854Z,100908.47
2023-05-19T18:06:17.709Z,100895.94
2023-05-19T18:09:23.175Z,100903.66
2023-05-19T18:12:25.599Z,100902.66
2023-05-19T18:15:28.377Z,100909.38
2023-05-19T18:18:30.888Z,100905.13
2023-05-19T18:21:33.844Z,100902.56
2023-05-19T18:24:36.246Z,100906.00
2023-05-19T18:27:38.971Z,100890.81
2023-05-19T18:30:41.493Z,100888.94
2023-05-19T18:33:47.141Z,100912.38
2023-05-19T18:36:49.764Z,100908.13
2023-05-19T18:39:52.582Z,100919.41
2023-05-19T18:42:54.996Z,100905.75
2023-05-19T18:45:58.341Z,100906.31
2023-05-19T18:49:00.869Z,100920.44
2023-05-19T18:52:03.593Z,100905.72
2023-05-19T18:55:07.212Z,100936.44
2023-05-19T18:58:09.945Z,100934.53
2023-05-19T19:01:16.410Z,100921.91
2023-05-19T19:04:19.385Z,100935.94
2023-05-19T19:07:24.212Z,100931.66
2023-05-19T19:10:27.424Z,100930.59
2023-05-19T19:13:29.777Z,100937.47
2023-05-19T19:16:34.716Z,100917.94
2023-05-19T19:19:37.336Z,100939.84
2023-05-19T19:22:40.185Z,100918.50
2023-05-19T19:25:42.547Z,100928.31
2023-05-19T19:28:46.347Z,100927.56
2023-05-19T19:31:48.974Z,100949.91
2023-05-19T19:34:54.644Z,100947.78
2023-05-19T19:37:58.453Z,100953.41
2023-05-19T19:41:01.270Z,100952.44
2023-05-19T19:44:03.831Z,100957.78
2023-05-19T19:47:06.862Z,100959.63
2023-05-19T19:50:10.602Z,100954.41
2023-05-19T19:53:13.276Z,100952.00
2023-05-19T19:56:15.752Z,100971.16
2023-05-19T19:59:18.520Z,100964.91
2023-05-19T20:02:21.678Z,100977.97
2023-05-19T20:05:24.495Z,100957.97
2023-05-19T20:08:27.356Z,100962.75
2023-05-19T20:11:30.513Z,100974.03
2023-05-19T20:14:37.858Z,100954.72
2023-05-19T20:17:41.401Z,100955.28
2023-05-19T20:20:44.028Z,100976.28
2023-05-19T20:23:46.960Z,100977.09
2023-05-19T20:26:49.250Z,100964.22
2023-05-19T20:29:52.015Z,100977.59
2023-05-19T20:32:54.425Z,100978.63
2023-05-19T20:35:57.178Z,100966.84
2023-05-19T20:38:59.721Z,100970.41
2023-05-19T20:42:02.436Z,100973.88
2023-05-19T20:45:05.182Z,100974.22
2023-05-19T20:48:07.887Z,100957.06
2023-05-19T20:51:10.278Z,100964.03
2023-05-19T20:54:13.243Z,100970.66
2023-05-19T20:57:16.341Z,100966.66
2023-05-19T21:00:19.093Z,100972.13
2023-05-19T21:03:23.380Z,100950.66
2023-05-19T21:06:26.369Z,100971.16
2023-05-19T21:09:28.932Z,100958.09
2023-05-19T21:12:34.402Z,100959.94
2023-05-19T21:15:36.928Z,100968.69
2023-05-19T21:18:39.627Z,100967.53
2023-05-19T21:21:44.763Z,100971.00
2023-05-19T21:24:47.592Z,100969.06
2023-05-19T21:27:51.447Z,100948.56
2023-05-19T21:30:54.179Z,100965.09
2023-05-19T21:33:56.767Z,100967.72
2023-05-19T21:36:59.532Z,100972.34
2023-05-19T21:40:01.913Z,100968.56
2023-05-19T21:43:05.925Z,100970.72
2023-05-19T21:46:08.446Z,100953.19
2023-05-19T21:49:11.153Z,100949.22
2023-05-19T21:52:13.555Z,100950.03
2023-05-19T21:55:16.275Z,100944.75
2023-05-19T21:58:18.866Z,100943.44
2023-05-19T22:01:22.592Z,100965.09
2023-05-19T22:04:25.456Z,100956.00
2023-05-19T22:07:28.618Z,100949.37
2023-05-19T22:10:31.810Z,100942.75
2023-05-19T22:13:34.428Z,100939.63
2023-05-19T22:16:37.202Z,100955.50
2023-05-19T22:19:39.587Z,100943.09
2023-05-19T22:22:42.271Z,100932.66
2023-05-19T22:25:44.705Z,100937.44
2023-05-19T22:28:47.343Z,100931.34
2023-05-19T22:31:52.267Z,100923.06
2023-05-19T22:34:55.024Z,100915.97
2023-05-19T22:37:57.478Z,100926.03
2023-05-19T22:41:00.157Z,100913.31
2023-05-19T22:44:02.507Z,100924.75
2023-05-19T22:47:05.314Z,100923.25
2023-05-19T22:50:12.362Z,100928.72
2023-05-19T22:53:15.181Z,100932.34
2023-05-19T22:56:17.648Z,100935.13
2023-05-19T22:59:21.594Z,100941.22
2023-05-19T23:02:24.046Z,100931.59
2023-05-19T23:05:26.681Z,100928.75
2023-05-19T23:08:29.391Z,100918.50
2023-05-19T23:11:32.127Z,100912.06
2023-05-19T23:14:34.659Z,100898.69
2023-05-19T23:17:37.617Z,100906.09
2023-05-19T23:20:40.013Z,100899.03
2023-05-19T23:23:42.772Z,100892.38
2023-05-19T23:26:45.223Z,100896.66
2023-05-19T23:29:51.327Z,100911.00
2023-05-19T23:32:54.025Z,100895.31
2023-05-19T23:35:59.249Z,100894.47
2023-05-19T23:39:01.766Z,100895.31
2023-05-19T23:42:05.727Z,100895.31
2023-05-19T23:45:08.557Z,100905.22
2023-05-19T23:48:11.579Z,100906.69
2023-05-19T23:51:14.076Z,100900.09
2023-05-19T23:54:16.715Z,100893.47
2023-05-19T23:57:19.124Z,100890.47
